KSMF data

Available data for KSMF from the past 2 hours
SACRAMENTO/METRO, CA
Metar
KSMF 160753Z 16012KT 10SM FEW034 BKN065 OVC080 07/04 A3006 RMK AO2 SLP179 T00720044 401170067

07:53 UTC

Wind: 160° 12kt

Visibility: 10 SM

Sky: FEW 3400 ft

Temp: 7 deg C / 44.6 deg F

Dewpoint: 4 deg C / 39.2 deg F

Pressure: 30.06 inHg

TAF
KSMF 160536Z 1606/1706 17010KT P6SM OVC050 TEMPO 1608/1611 6SM -SHRA OVC025 FM161700 20014KT P6SM BKN040 TEMPO 1620/1623 -SHRA OVC030 FM170000 30010KT P6SM BKN050
Pirep (1)
SFO UA /OV OAK090015/TM 0645/FL260/TP B739/TB LGT-MOD/RM AWC-WEB/